createdAt,value
2019-05-09T00:02:04.799Z,2.97
2019-05-09T00:04:33.526Z,3.23
2019-05-09T00:07:03.641Z,3.40
2019-05-09T00:09:33.581Z,2.93
2019-05-09T00:12:03.746Z,3.40
2019-05-09T00:14:34.199Z,2.50
2019-05-09T00:17:03.657Z,2.67
2019-05-09T00:19:33.346Z,2.90
2019-05-09T00:22:03.258Z,3.30
2019-05-09T00:24:33.197Z,2.40
2019-05-09T00:27:03.789Z,3.53
2019-05-09T00:29:53.138Z,3.40
2019-05-09T00:32:23.969Z,2.90
2019-05-09T00:34:59.959Z,3.00
2019-05-09T00:40:20.725Z,4.70
2019-05-09T00:43:08.500Z,5.80
2019-05-09T00:45:54.928Z,5.43
2019-05-09T00:48:25.003Z,5.50
2019-05-09T00:50:54.422Z,6.20
2019-05-09T00:53:44.419Z,6.87
2019-05-09T00:56:13.407Z,7.10
2019-05-09T00:58:44.076Z,7.20
2019-05-09T01:01:13.644Z,7.90
2019-05-09T01:03:43.211Z,9.77
2019-05-09T01:06:13.491Z,8.50
2019-05-09T01:08:44.078Z,8.50
2019-05-09T01:11:15.330Z,8.90
2019-05-09T01:13:43.433Z,7.80
2019-05-09T01:16:13.373Z,7.87
2019-05-09T01:18:43.779Z,8.37
2019-05-09T01:21:13.422Z,7.73
2019-05-09T01:23:43.616Z,7.40
2019-05-09T01:26:13.189Z,7.63
2019-05-09T01:28:44.048Z,7.77
2019-05-09T01:31:13.276Z,8.70
2019-05-09T01:33:59.944Z,9.77
2019-05-09T01:36:30.048Z,9.90
2019-05-09T01:38:58.520Z,7.93
2019-05-09T01:41:31.008Z,9.33
2019-05-09T01:43:57.108Z,8.10
2019-05-09T01:46:25.540Z,10.27
2019-05-09T01:48:54.074Z,9.47
2019-05-09T01:51:23.303Z,9.60
2019-05-09T01:53:53.743Z,12.07
2019-05-09T01:56:23.471Z,11.20
2019-05-09T01:58:53.884Z,12.67
2019-05-09T02:01:24.141Z,10.00
2019-05-09T02:03:53.742Z,11.33
2019-05-09T02:06:24.392Z,10.00
2019-05-09T02:08:54.505Z,10.00
2019-05-09T02:11:23.807Z,10.20
2019-05-09T02:13:53.524Z,9.00
2019-05-09T02:16:23.848Z,9.40
2019-05-09T02:21:34.614Z,8.90
2019-05-09T02:24:04.305Z,6.50
2019-05-09T02:26:33.496Z,8.03
2019-05-09T02:29:23.163Z,8.23
2019-05-09T02:31:54.439Z,8.40
2019-05-09T02:34:24.574Z,9.70
2019-05-09T02:36:52.058Z,9.40
2019-05-09T02:39:20.501Z,9.13
2019-05-09T02:42:01.178Z,9.23
2019-05-09T02:44:19.766Z,9.40
2019-05-09T02:47:02.619Z,8.93
2019-05-09T02:49:31.048Z,8.53
2019-05-09T02:51:59.661Z,8.20
2019-05-09T02:54:29.744Z,8.33
2019-05-09T02:56:58.370Z,6.50
2019-05-09T02:59:43.540Z,5.90
2019-05-09T03:02:19.278Z,6.23
2019-05-09T03:04:48.943Z,6.00
2019-05-09T03:07:18.917Z,5.80
2019-05-09T03:09:47.993Z,5.27
2019-05-09T03:12:26.762Z,4.63
2019-05-09T03:14:48.713Z,4.60
2019-05-09T03:17:18.590Z,4.40
2019-05-09T03:19:48.829Z,4.23
2019-05-09T03:22:19.173Z,5.13
2019-05-09T03:24:48.792Z,4.57
2019-05-09T03:27:19.031Z,5.77
2019-05-09T03:29:49.220Z,5.40
2019-05-09T03:32:19.414Z,5.57
2019-05-09T03:34:48.288Z,5.80
2019-05-09T03:37:17.705Z,5.23
2019-05-09T03:39:47.816Z,5.50
2019-05-09T03:42:21.268Z,5.50
2019-05-09T03:44:47.742Z,5.10
2019-05-09T03:47:21.092Z,5.80
2019-05-09T03:50:09.152Z,5.10
2019-05-09T03:52:37.585Z,4.83
2019-05-09T03:55:10.725Z,4.90
2019-05-09T03:57:40.789Z,4.87
2019-05-09T04:00:10.217Z,4.50
2019-05-09T04:02:38.709Z,4.60
2019-05-09T04:05:08.150Z,5.50
2019-05-09T04:07:38.427Z,5.00
2019-05-09T04:10:07.818Z,5.40
2019-05-09T04:12:37.555Z,3.80
2019-05-09T04:15:08.379Z,3.63
2019-05-09T04:17:43.739Z,3.20
2019-05-09T04:20:14.189Z,4.60
2019-05-09T04:22:42.954Z,4.13
2019-05-09T04:25:13.273Z,4.40
2019-05-09T04:27:43.333Z,4.50
2019-05-09T04:30:12.099Z,3.93
2019-05-09T04:32:40.597Z,4.87
2019-05-09T04:35:09.161Z,4.47
2019-05-09T04:37:38.003Z,3.50
2019-05-09T04:40:08.265Z,3.67
2019-05-09T04:42:43.076Z,3.97
2019-05-09T04:45:10.223Z,3.30
2019-05-09T04:47:43.335Z,3.23
2019-05-09T04:50:08.990Z,3.10
2019-05-09T04:52:49.810Z,3.83
2019-05-09T04:55:19.710Z,3.60
2019-05-09T04:57:48.655Z,3.97
2019-05-09T05:00:18.863Z,3.60
2019-05-09T05:02:51.831Z,3.07
2019-05-09T05:05:20.262Z,3.63
2019-05-09T05:07:48.675Z,3.30
2019-05-09T05:10:18.405Z,3.53
2019-05-09T05:12:48.446Z,2.90
2019-05-09T05:15:17.964Z,3.00
2019-05-09T05:17:47.835Z,3.10
2019-05-09T05:20:18.639Z,3.53
2019-05-09T05:23:08.315Z,3.03
2019-05-09T05:25:38.253Z,2.87
2019-05-09T05:28:08.589Z,3.17
2019-05-09T05:30:58.203Z,2.47
2019-05-09T05:33:31.243Z,2.77
2019-05-09T05:36:01.303Z,3.60
2019-05-09T05:38:29.745Z,2.23
2019-05-09T05:40:58.175Z,3.70
2019-05-09T05:43:40.051Z,3.10
2019-05-09T05:45:58.551Z,2.93
2019-05-09T05:48:28.828Z,2.20
2019-05-09T05:50:57.762Z,2.50
2019-05-09T05:53:27.756Z,2.47
2019-05-09T05:55:58.040Z,2.20
2019-05-09T05:58:28.164Z,2.20
2019-05-09T06:01:18.516Z,2.30
2019-05-09T06:03:48.102Z,3.23
2019-05-09T06:06:17.511Z,2.10
2019-05-09T06:08:48.387Z,2.20
2019-05-09T06:11:17.683Z,2.43
2019-05-09T06:13:54.370Z,2.10
2019-05-09T06:16:18.187Z,2.00
2019-05-09T06:18:47.547Z,2.67
2019-05-09T06:21:17.748Z,1.80
2019-05-09T06:24:05.686Z,2.00
2019-05-09T06:26:53.433Z,2.33
2019-05-09T06:29:21.870Z,2.30
2019-05-09T06:31:50.273Z,2.17
2019-05-09T06:34:19.080Z,2.10
2019-05-09T06:36:48.838Z,2.33
2019-05-09T06:39:18.029Z,1.60
2019-05-09T06:41:48.378Z,2.50
2019-05-09T06:44:20.711Z,2.30
2019-05-09T06:47:08.063Z,2.10
2019-05-09T06:49:43.221Z,2.10
2019-05-09T06:52:11.653Z,2.60
2019-05-09T06:54:41.798Z,2.03
2019-05-09T06:57:10.377Z,2.70
2019-05-09T06:59:38.809Z,2.50
2019-05-09T07:02:11.567Z,2.80
2019-05-09T07:04:47.690Z,2.80
2019-05-09T07:07:20.781Z,3.50
2019-05-09T07:09:53.337Z,2.13
2019-05-09T07:12:21.754Z,2.70
2019-05-09T07:14:50.250Z,2.67
2019-05-09T07:17:19.041Z,3.63
2019-05-09T07:19:48.854Z,3.53
2019-05-09T07:22:19.402Z,2.87
2019-05-09T07:25:06.836Z,2.90
2019-05-09T07:27:38.826Z,2.67
2019-05-09T07:30:10.709Z,2.33
2019-05-09T07:32:57.974Z,2.10
2019-05-09T07:35:27.830Z,2.30
2019-05-09T07:37:57.845Z,3.33
2019-05-09T07:40:30.416Z,2.37
2019-05-09T07:42:58.428Z,3.40
2019-05-09T07:45:28.116Z,5.00
2019-05-09T07:47:58.388Z,3.23
2019-05-09T07:50:27.784Z,4.30
2019-05-09T07:52:58.212Z,2.40
2019-05-09T07:55:27.443Z,2.77
2019-05-09T07:57:58.770Z,1.83
2019-05-09T08:00:34.512Z,2.80
2019-05-09T08:03:02.937Z,2.90
2019-05-09T08:05:31.555Z,1.70
2019-05-09T08:07:59.987Z,2.60
2019-05-09T08:10:32.684Z,2.40
2019-05-09T08:12:58.812Z,1.30
2019-05-09T08:15:28.083Z,2.80
2019-05-09T08:17:59.149Z,1.90
2019-05-09T08:20:27.789Z,2.10
2019-05-09T08:22:58.623Z,2.20
2019-05-09T08:25:27.666Z,2.80
2019-05-09T08:27:58.664Z,2.33
2019-05-09T08:30:32.962Z,2.30
2019-05-09T08:32:56.799Z,2.90
2019-05-09T08:35:27.779Z,2.93
2019-05-09T08:37:55.371Z,3.27
2019-05-09T08:40:23.792Z,2.60
2019-05-09T08:42:52.223Z,2.80
2019-05-09T08:45:27.520Z,2.60
2019-05-09T08:47:51.118Z,1.93
2019-05-09T08:50:38.968Z,2.23
2019-05-09T08:53:08.318Z,2.07
2019-05-09T08:55:38.285Z,2.63
2019-05-09T08:58:07.946Z,2.40
2019-05-09T09:00:38.799Z,1.90
2019-05-09T09:03:07.958Z,2.60
2019-05-09T09:05:38.170Z,1.60
2019-05-09T09:08:08.345Z,2.40
2019-05-09T09:10:38.544Z,2.20
2019-05-09T09:13:08.784Z,2.30
2019-05-09T09:16:03.814Z,1.70
2019-05-09T09:18:08.559Z,2.70
2019-05-09T09:20:38.124Z,2.33
2019-05-09T09:23:08.943Z,2.30
2019-05-09T09:25:38.876Z,3.20
2019-05-09T09:28:08.748Z,3.37
2019-05-09T09:30:38.535Z,3.47
2019-05-09T09:33:11.261Z,2.50
2019-05-09T09:35:38.406Z,1.37
2019-05-09T09:38:09.343Z,2.00
2019-05-09T09:40:38.487Z,1.87
2019-05-09T09:43:09.211Z,2.50
2019-05-09T09:45:37.901Z,2.20
2019-05-09T09:48:09.030Z,2.00
2019-05-09T09:50:38.256Z,2.97
2019-05-09T09:53:50.877Z,2.30
2019-05-09T09:56:22.181Z,2.30
2019-05-09T10:05:28.563Z,2.03
2019-05-09T10:08:10.277Z,3.43
2019-05-09T10:10:45.038Z,1.67
2019-05-09T10:13:13.470Z,2.40
2019-05-09T10:15:47.460Z,2.27
2019-05-09T10:18:20.856Z,2.77
2019-05-09T10:20:50.978Z,3.23
2019-05-09T10:23:21.586Z,1.90
2019-05-09T10:25:49.607Z,1.97
2019-05-09T10:28:21.369Z,2.40
2019-05-09T10:30:48.551Z,1.87
2019-05-09T10:33:17.640Z,2.13
2019-05-09T10:35:47.943Z,2.03
2019-05-09T10:38:18.359Z,2.47
2019-05-09T10:40:48.507Z,3.10
2019-05-09T10:43:38.857Z,1.57
2019-05-09T10:46:19.430Z,2.30
2019-05-09T10:48:49.810Z,2.40
2019-05-09T10:51:18.668Z,1.60
2019-05-09T10:53:48.169Z,2.20
2019-05-09T10:56:18.780Z,2.23
2019-05-09T10:58:48.184Z,2.93
2019-05-09T11:01:18.590Z,2.47
2019-05-09T11:03:48.322Z,2.00
2019-05-09T11:06:18.329Z,2.00
2019-05-09T11:08:47.784Z,2.00
2019-05-09T11:11:18.300Z,2.50
2019-05-09T11:13:48.303Z,2.10
2019-05-09T11:16:18.365Z,2.40
2019-05-09T11:18:48.320Z,2.33
2019-05-09T11:21:19.161Z,2.40
2019-05-09T11:23:48.778Z,2.30
2019-05-09T11:26:18.164Z,2.30
2019-05-09T11:28:46.848Z,2.50
2019-05-09T11:31:18.097Z,1.77
2019-05-09T11:33:48.147Z,2.20
2019-05-09T11:36:20.749Z,2.40
2019-05-09T11:38:45.759Z,2.17
2019-05-09T11:41:14.997Z,1.90
2019-05-09T11:43:43.676Z,2.10
2019-05-09T11:46:12.113Z,2.20
2019-05-09T11:48:40.527Z,2.43
2019-05-09T11:51:29.152Z,2.70
2019-05-09T11:53:58.296Z,2.23
2019-05-09T11:56:26.772Z,2.70
2019-05-09T11:58:55.210Z,2.00
2019-05-09T12:01:42.969Z,3.57
2019-05-09T12:04:11.398Z,2.40
2019-05-09T12:06:39.816Z,3.23
2019-05-09T12:09:09.407Z,3.47
2019-05-09T12:11:41.363Z,3.20
2019-05-09T12:14:27.776Z,3.30
2019-05-09T12:16:56.206Z,2.83
2019-05-09T12:19:24.633Z,3.10
2019-05-09T12:22:12.434Z,2.87
2019-05-09T12:25:00.253Z,2.43
2019-05-09T12:27:28.690Z,2.40
2019-05-09T12:29:57.969Z,2.00
2019-05-09T12:32:28.467Z,2.20
2019-05-09T12:35:18.892Z,1.90
2019-05-09T12:37:48.301Z,2.43
2019-05-09T12:40:19.827Z,1.87
2019-05-09T12:42:49.610Z,2.50
2019-05-09T12:45:38.554Z,2.27
2019-05-09T12:48:14.623Z,2.37
2019-05-09T12:50:38.746Z,2.30
2019-05-09T12:53:07.301Z,2.60
2019-05-09T12:55:38.288Z,2.80
2019-05-09T12:58:09.798Z,1.90
2019-05-09T13:00:58.572Z,2.00
2019-05-09T13:03:28.922Z,1.80
2019-05-09T13:05:57.704Z,1.57
2019-05-09T13:08:27.870Z,1.70
2019-05-09T13:10:58.338Z,1.93
2019-05-09T13:13:30.215Z,1.67
2019-05-09T13:15:58.319Z,1.50
2019-05-09T13:18:29.742Z,1.73
2019-05-09T13:20:58.361Z,1.73
2019-05-09T13:23:29.088Z,1.40
2019-05-09T13:25:58.608Z,1.87
2019-05-09T13:28:27.223Z,1.77
2019-05-09T13:30:58.322Z,2.27
2019-05-09T13:33:25.775Z,1.83
2019-05-09T13:36:13.523Z,2.13
2019-05-09T13:38:55.479Z,1.63
2019-05-09T13:41:12.087Z,1.73
2019-05-09T13:43:46.960Z,2.07
2019-05-09T13:46:10.795Z,1.33
2019-05-09T13:49:01.283Z,1.90
2019-05-09T13:51:09.376Z,2.10
2019-05-09T13:53:38.696Z,2.03
2019-05-09T13:56:08.485Z,1.93
2019-05-09T13:58:38.489Z,2.10
2019-05-09T14:01:07.801Z,1.90
2019-05-09T14:03:38.646Z,1.40
2019-05-09T14:06:08.918Z,1.70
2019-05-09T14:08:38.997Z,1.87
2019-05-09T14:11:08.414Z,1.97
2019-05-09T14:13:38.488Z,1.80
2019-05-09T14:16:18.954Z,2.20
2019-05-09T14:18:38.541Z,2.10
2019-05-09T14:21:07.801Z,2.30
2019-05-09T14:23:46.676Z,2.20
2019-05-09T14:26:09.166Z,2.10
2019-05-09T14:28:36.729Z,2.30
2019-05-09T14:31:28.697Z,1.83
2019-05-09T14:33:54.636Z,2.63
2019-05-09T14:36:23.049Z,2.40
2019-05-09T14:38:51.570Z,4.80
2019-05-09T14:41:20.017Z,2.90
2019-05-09T14:43:48.440Z,3.23
2019-05-09T14:46:18.231Z,3.67
2019-05-09T14:48:48.159Z,2.93
2019-05-09T14:51:18.629Z,2.77
2019-05-09T14:53:48.569Z,3.30
2019-05-09T14:56:17.169Z,3.50
2019-05-09T14:58:45.595Z,3.37
2019-05-09T15:01:14.001Z,3.13
2019-05-09T15:03:42.429Z,2.83
2019-05-09T15:06:10.862Z,3.67
2019-05-09T15:08:39.293Z,2.83
2019-05-09T15:11:09.777Z,2.63
2019-05-09T15:13:37.877Z,2.83
2019-05-09T15:16:08.740Z,3.17
2019-05-09T15:18:38.535Z,3.70
2019-05-09T15:21:07.962Z,3.17
2019-05-09T15:23:39.077Z,3.10
2019-05-09T15:26:07.736Z,2.53
2019-05-09T15:28:38.551Z,3.03
2019-05-09T15:31:08.868Z,2.70
2019-05-09T15:33:37.557Z,2.83
2019-05-09T15:36:25.557Z,2.60
2019-05-09T15:38:53.972Z,2.47
2019-05-09T15:41:22.423Z,2.53
2019-05-09T15:43:50.840Z,3.00
2019-05-09T15:46:20.909Z,2.47
2019-05-09T15:48:49.340Z,2.90
2019-05-09T15:51:18.086Z,2.40
2019-05-09T15:53:48.690Z,2.40
2019-05-09T15:56:18.746Z,2.63
2019-05-09T15:58:49.027Z,2.50
2019-05-09T16:01:18.371Z,2.60
2019-05-09T16:03:48.648Z,3.10
2019-05-09T16:06:19.411Z,2.37
2019-05-09T16:08:47.616Z,4.00
2019-05-09T16:11:18.036Z,2.77
2019-05-09T16:13:48.006Z,3.20
2019-05-09T16:16:17.551Z,3.10
2019-05-09T16:18:48.696Z,2.47
2019-05-09T16:21:16.640Z,3.00
2019-05-09T16:23:45.168Z,2.93
2019-05-09T16:26:13.591Z,2.93
2019-05-09T16:28:42.025Z,3.03
2019-05-09T16:31:10.437Z,2.87
2019-05-09T16:33:38.857Z,2.80
2019-05-09T16:36:07.305Z,2.87
2019-05-09T16:38:43.047Z,3.13
2019-05-09T16:41:07.679Z,2.60
2019-05-09T16:43:38.132Z,2.40
2019-05-09T16:46:07.558Z,2.60
2019-05-09T16:48:36.177Z,2.87
2019-05-09T16:51:04.642Z,2.30
2019-05-09T16:53:33.097Z,2.20
2019-05-09T16:56:01.541Z,2.33
2019-05-09T16:58:29.949Z,2.63
2019-05-09T17:00:58.441Z,2.63
2019-05-09T17:03:28.388Z,3.40
2019-05-09T17:05:58.249Z,2.63
2019-05-09T17:08:28.183Z,3.07
2019-05-09T17:10:58.659Z,2.93
2019-05-09T17:13:28.942Z,3.13
2019-05-09T17:15:57.331Z,3.87
2019-05-09T17:18:28.118Z,3.30
2019-05-09T17:21:18.515Z,3.07
2019-05-09T17:23:45.115Z,2.93
2019-05-09T17:26:13.527Z,3.17
2019-05-09T17:28:41.959Z,3.13
2019-05-09T17:31:10.372Z,3.50
2019-05-09T17:33:38.798Z,3.37
2019-05-09T17:36:28.537Z,3.20
2019-05-09T17:38:56.700Z,3.80
2019-05-09T17:41:25.128Z,3.73
2019-05-09T17:43:53.564Z,3.70
2019-05-09T17:46:41.323Z,4.07
2019-05-09T17:49:09.744Z,4.07
2019-05-09T17:51:38.237Z,4.33
2019-05-09T17:54:26.008Z,3.93
2019-05-09T17:56:54.424Z,4.00
2019-05-09T17:59:22.876Z,4.60
2019-05-09T18:02:10.644Z,4.30
2019-05-09T18:04:58.404Z,4.73
2019-05-09T18:07:27.988Z,5.27
2019-05-09T18:09:58.079Z,5.17
2019-05-09T18:12:27.716Z,6.50
2019-05-09T18:14:56.401Z,6.13
2019-05-09T18:17:24.901Z,6.93
2019-05-09T18:19:53.380Z,7.10
2019-05-09T18:22:21.812Z,4.13
2019-05-09T18:24:50.232Z,6.30
2019-05-09T18:27:18.705Z,5.47
2019-05-09T18:29:47.468Z,7.00
2019-05-09T18:32:23.502Z,4.83
2019-05-09T18:34:53.641Z,5.40
2019-05-09T18:37:22.060Z,4.83
2019-05-09T18:39:50.485Z,6.00
2019-05-09T18:42:18.985Z,6.17
2019-05-09T18:44:47.700Z,5.77
2019-05-09T18:47:18.369Z,3.93
2019-05-09T18:49:46.425Z,3.83
2019-05-09T18:52:14.874Z,4.30
2019-05-09T18:54:43.294Z,2.27
2019-05-09T18:57:11.721Z,2.83
2019-05-09T18:59:40.130Z,2.80
2019-05-09T19:02:08.564Z,3.30
2019-05-09T19:04:36.982Z,3.20
2019-05-09T19:07:20.693Z,3.60
2019-05-09T19:09:35.687Z,2.00
2019-05-09T19:12:04.102Z,2.90
2019-05-09T19:14:32.522Z,2.80
2019-05-09T19:17:17.842Z,2.67
2019-05-09T19:20:03.019Z,2.20
2019-05-09T19:22:31.496Z,4.33
2019-05-09T19:24:59.921Z,3.53
2019-05-09T19:27:28.354Z,2.80
2019-05-09T19:29:56.795Z,3.00
2019-05-09T19:32:44.563Z,2.70
2019-05-09T19:35:13.271Z,2.60
2019-05-09T19:37:41.711Z,3.00
2019-05-09T19:40:10.471Z,2.80
2019-05-09T19:42:38.885Z,2.30
2019-05-09T19:45:08.252Z,1.90
2019-05-09T19:47:36.667Z,2.23
2019-05-09T19:50:07.944Z,2.63
2019-05-09T19:52:38.693Z,2.57
2019-05-09T19:55:06.891Z,3.30
2019-05-09T19:57:35.304Z,3.20
2019-05-09T20:00:09.382Z,3.90
2019-05-09T20:02:37.798Z,2.60
2019-05-09T20:05:07.062Z,2.97
2019-05-09T20:07:35.470Z,2.80
2019-05-09T20:10:09.876Z,3.40
2019-05-09T20:13:15.403Z,3.90
2019-05-09T20:15:56.146Z,3.63
2019-05-09T20:18:24.559Z,3.50
2019-05-09T20:20:53.009Z,4.27
2019-05-09T20:23:21.491Z,3.37
2019-05-09T20:25:49.934Z,4.40
2019-05-09T20:28:18.357Z,5.20
2019-05-09T20:30:46.959Z,4.80
2019-05-09T20:33:15.349Z,5.00
2019-05-09T20:36:03.152Z,5.47
2019-05-09T20:38:31.824Z,4.80
2019-05-09T20:41:00.795Z,4.40
2019-05-09T20:43:29.421Z,6.03
2019-05-09T20:45:58.039Z,5.80
2019-05-09T20:48:26.639Z,5.57
2019-05-09T20:50:55.267Z,6.10
2019-05-09T20:53:23.875Z,5.63
2019-05-09T20:55:52.491Z,5.23
2019-05-09T20:58:21.091Z,6.00
2019-05-09T21:00:49.704Z,5.50
2019-05-09T21:03:18.329Z,5.93
2019-05-09T21:05:46.951Z,6.00
2019-05-09T21:08:15.566Z,6.17
2019-05-09T21:10:44.164Z,5.33
2019-05-09T21:13:12.780Z,6.47
2019-05-09T21:15:41.380Z,7.13
2019-05-09T21:18:10.243Z,7.50
2019-05-09T21:20:38.979Z,6.60
2019-05-09T21:23:07.768Z,6.90
2019-05-09T21:25:36.368Z,6.57
2019-05-09T21:28:05.084Z,7.33
2019-05-09T21:30:33.710Z,7.93
2019-05-09T21:33:02.331Z,9.73
2019-05-09T21:35:30.841Z,9.80
2019-05-09T21:37:59.240Z,9.83
2019-05-09T21:40:47.028Z,9.70
2019-05-09T21:43:15.461Z,10.30
2019-05-09T21:46:03.241Z,11.50
2019-05-09T21:48:31.665Z,10.50
2019-05-09T21:51:19.441Z,11.00
2019-05-09T21:53:47.861Z,11.43
2019-05-09T21:56:16.349Z,10.80
2019-05-09T21:58:44.802Z,12.80
2019-05-09T22:01:16.343Z,11.40
2019-05-09T22:03:44.891Z,12.13
2019-05-09T22:06:13.344Z,10.17
2019-05-09T22:08:41.761Z,11.83
2019-05-09T22:11:10.187Z,12.80
2019-05-09T22:13:38.613Z,12.27
2019-05-09T22:16:07.049Z,12.87
2019-05-09T22:18:35.478Z,11.67
2019-05-09T22:21:03.901Z,11.77
2019-05-09T22:23:32.354Z,12.93
2019-05-09T22:26:00.761Z,12.53
2019-05-09T22:28:29.186Z,11.57
2019-05-09T22:30:57.613Z,11.00
2019-05-09T22:33:26.053Z,12.67
2019-05-09T22:35:54.477Z,11.10
2019-05-09T22:38:22.901Z,12.83
2019-05-09T22:40:51.339Z,9.30
2019-05-09T22:43:19.778Z,11.90
2019-05-09T22:45:48.193Z,11.83
2019-05-09T22:48:16.622Z,10.37
2019-05-09T22:50:45.042Z,11.60
2019-05-09T22:53:13.566Z,10.30
2019-05-09T22:55:41.991Z,11.13
2019-05-09T22:58:10.418Z,11.47
2019-05-09T23:00:38.891Z,11.03
2019-05-09T23:03:07.355Z,9.73
2019-05-09T23:05:35.783Z,10.17
2019-05-09T23:08:04.208Z,11.50
2019-05-09T23:10:32.634Z,10.40
2019-05-09T23:13:01.115Z,10.27
2019-05-09T23:15:29.578Z,9.90
2019-05-09T23:17:57.991Z,10.37
2019-05-09T23:20:28.046Z,9.73
2019-05-09T23:23:32.399Z,9.50
2019-05-09T23:26:00.866Z,9.10
2019-05-09T23:28:29.467Z,9.03
2019-05-09T23:31:02.319Z,9.80
2019-05-09T23:33:32.387Z,10.37
2019-05-09T23:36:00.795Z,9.90
2019-05-09T23:38:29.226Z,7.40
2019-05-09T23:40:57.643Z,9.07
2019-05-09T23:43:26.081Z,6.50
2019-05-09T23:45:54.487Z,8.10
2019-05-09T23:48:22.923Z,6.00
2019-05-09T23:50:51.367Z,7.83
2019-05-09T23:53:32.952Z,6.53
2019-05-09T23:56:19.062Z,6.80
2019-05-09T23:59:05.625Z,6.27
